Flight Track Log - Related Links

Times and Time Zones

All times are in EDT time to prevent confusion due to time zone crossing. See the SWA1619 flight status page for this flight to view local times or setup timezone preferences in your user account.

Time Position Orientation Groundspeed Altitude Reporting Facility
EDT Latitude Longitude Course Direction KTS MPH feet Rate Location/Type
Fri 08:15:34 AM 29.6544 -95.2892 350° North 145 167 1,000  Level Houston Center
Fri 08:15:58 AM 29.6692 -95.2922 350° North 133 153 1,900 2,188 Climbing Houston Center
Fri 08:16:59 AM 29.7153 -95.2892 North 190 219 4,100 2,540 Climbing Houston Center
Fri 08:18:15 AM 29.7867 -95.2822 North 222 255 7,700 2,759 Climbing Houston Center
Fri 08:19:16 AM 29.8617 -95.2794 North 273 314 10,400 2,557 Climbing Houston Center
Fri 08:20:17 AM 29.9539 -95.2608 10° North 341 392 12,900 2,705 Climbing Houston Center
Fri 08:21:18 AM 30.0514 -95.2003 28° Northeast 397 457 15,900 2,829 Climbing Houston Center
Fri 08:22:20 AM 30.1544 -95.1369 28° Northeast 416 479 18,700 3,073 Climbing Houston Center
Fri 08:23:21 AM 30.2831 -95.0583 28° Northeast 436 502 22,200 2,656 Climbing Houston Center
Fri 08:24:22 AM 30.3928 -94.9925 27° Northeast 445 512 24,100 2,000 Climbing Houston Center
Fri 08:25:24 AM 30.4958 -94.9264 29° Northeast 466 536 26,300 2,049 Climbing Houston Center
Fri 08:26:25 AM 30.6353 -94.8286 31° Northeast 491 565 28,300 1,820 Climbing Houston Center
Fri 08:27:26 AM 30.7558 -94.7372 33° Northeast 513 590 30,000 1,707 Climbing Houston Center
Fri 08:28:28 AM 30.8775 -94.6428 34° Northeast 526 605 31,800 1,765 Climbing Houston Center
Fri 08:28:51 AM 30.9294 -94.6044 32° Northeast 513 590 32,500 1,590 Climbing Fort Worth Center
Fri 08:29:51 AM 31.0483 -94.5061 35° Northeast 518 596 34,000 1,350 Climbing Fort Worth Center
Fri 08:30:51 AM 31.1653 -94.4225 31° Northeast 524 603 35,200 1,250 Climbing Fort Worth Center
Fri 08:31:51 AM 31.2922 -94.3186 35° Northeast 538 619 36,500 1,200 Climbing Fort Worth Center
Fri 08:32:51 AM 31.4150 -94.2150 36° Northeast 543 625 37,600 1,250 Climbing Fort Worth Center
Fri 08:33:51 AM 31.5286 -94.0892 43° Northeast 549 632 39,000 700 Climbing Fort Worth Center
Fri 08:34:51 AM 31.6403 -93.9656 43° Northeast 549 632 39,000  Level Fort Worth Center
Fri 08:35:51 AM 31.7517 -93.8467 42° Northeast 543 625 39,000  Level Fort Worth Center
Fri 08:36:51 AM 31.8628 -93.7200 44° Northeast 543 625 39,000  Level Fort Worth Center
Fri 08:37:51 AM 31.9758 -93.5931 44° Northeast 548 631 39,000  Level Fort Worth Center
Fri 08:38:51 AM 32.0847 -93.4683 44° Northeast 548 631 39,000  Level Fort Worth Center
Fri 08:39:51 AM 32.2075 -93.3231 45° Northeast 548 631 39,000  Level Fort Worth Center
Fri 08:40:51 AM 32.3203 -93.1950 44° Northeast 548 631 39,000  Level Fort Worth Center
Fri 08:41:51 AM 32.4306 -93.0669 44° Northeast 548 631 39,000  Level Fort Worth Center
Fri 08:42:51 AM 32.5431 -92.9383 44° Northeast 548 631 39,000  Level Fort Worth Center
Fri 08:43:51 AM 32.6575 -92.8117 43° Northeast 548 631 39,000  Level Fort Worth Center
Fri 08:44:51 AM 32.7656 -92.6875 44° Northeast 548 631 39,000  Level Fort Worth Center
Fri 08:45:51 AM 32.8733 -92.5608 45° Northeast 548 631 39,000  Level Fort Worth Center
Fri 08:47:29 AM 33.0486 -92.3550 45° Northeast 525 604 39,000  Level Memphis Center
Fri 08:48:29 AM 33.1611 -92.2283 43° Northeast 533 613 39,000  Level Memphis Center
Fri 08:49:29 AM 33.2736 -92.1014 43° Northeast 544 626 39,000  Level Memphis Center
Fri 08:50:29 AM 33.3839 -91.9719 44° Northeast 544 626 39,000  Level Memphis Center
Fri 08:51:29 AM 33.4919 -91.8417 45° Northeast 539 620 39,000  Level Memphis Center
Fri 08:52:29 AM 33.5997 -91.7114 45° Northeast 539 620 39,000  Level Memphis Center
Fri 08:53:29 AM 33.6908 -91.5956 47° Northeast 539 620 39,000  Level Memphis Center
Fri 08:54:29 AM 33.8025 -91.4647 44° Northeast 539 620 39,000  Level Memphis Center
Fri 08:55:29 AM 33.9122 -91.3358 44° Northeast 539 620 39,000  Level Memphis Center
Fri 08:56:29 AM 34.0217 -91.2067 44° Northeast 539 620 39,000  Level Memphis Center
Fri 08:57:29 AM 34.1289 -91.0747 46° Northeast 539 620 39,000  Level Memphis Center
Fri 08:58:29 AM 34.2403 -90.9400 45° Northeast 545 627 39,000  Level Memphis Center
Fri 08:59:29 AM 34.3597 -90.7950 45° Northeast 545 627 39,000  Level Memphis Center
Fri 09:00:29 AM 34.4708 -90.6594 45° Northeast 551 634 39,000  Level Memphis Center
Fri 09:01:30 AM 34.5817 -90.5261 45° Northeast 551 634 39,000  Level Memphis Center
Fri 09:02:29 AM 34.6903 -90.3900 46° Northeast 556 640 39,000  Level Memphis Center
Fri 09:03:29 AM 34.7986 -90.2586 45° Northeast 549 632 39,000  Level Memphis Center
Fri 09:04:29 AM 34.9092 -90.1242 45° Northeast 549 632 39,000  Level Memphis Center
Fri 09:05:29 AM 35.0047 -89.9972 47° Northeast 554 638 39,000  Level Memphis Center
Fri 09:06:29 AM 35.0750 -89.8217 64° Northeast 552 635 39,000  Level Memphis Center
Fri 09:07:29 AM 35.1325 -89.6461 68° East 557 641 39,000 -450 Level Memphis Center
Fri 09:08:29 AM 35.1939 -89.4550 68° East 552 635 38,100 -1,100 Descending Memphis Center
Fri 09:09:29 AM 35.2489 -89.2842 68° East 546 628 36,800 -1,500 Descending Memphis Center
Fri 09:10:29 AM 35.3078 -89.1103 67° East 540 621 35,100 -1,400 Descending Memphis Center
Fri 09:11:29 AM 35.3642 -88.9364 68° East 548 631 34,000 -1,350 Descending Memphis Center
Fri 09:12:29 AM 35.4164 -88.7647 69° East 543 625 32,400 -1,800 Descending Memphis Center
Fri 09:13:29 AM 35.4744 -88.5853 68° East 538 619 30,400 -2,650 Descending Memphis Center
Fri 09:14:29 AM 35.5344 -88.4103 67° East 544 626 27,100 -3,200 Descending Memphis Center
Fri 09:15:29 AM 35.5897 -88.2331 69° East 556 640 24,000 -2,950 Descending Memphis Center
Fri 09:16:29 AM 35.6431 -88.0631 69° East 548 631 21,200 -2,900 Descending Memphis Center
Fri 09:17:29 AM 35.6961 -87.8928 69° East 531 611 18,200 -3,000 Descending Memphis Center
Fri 09:18:29 AM 35.7469 -87.7300 69° East 513 590 15,200 -2,950 Descending Memphis Center
Fri 09:19:29 AM 35.7936 -87.5725 70° East 508 585 12,300 -2,350 Descending Memphis Center
Fri 09:20:29 AM 35.8467 -87.4272 66° East 477 549 10,500 -1,150 Descending Memphis Center
Fri 09:21:29 AM 35.8878 -87.3131 66° East 438 504 10,000 -650 Descending Memphis Center
Fri 09:22:29 AM 35.9244 -87.2014 68° East 371 427 9,200 -1,050 Descending Memphis Center
Fri 09:23:29 AM 35.9278 -87.0911 88° East 332 382 7,900 -1,500 Descending Memphis Center
Fri 09:24:29 AM 35.9292 -86.9861 89° East 309 356 6,200 -1,450 Descending Memphis Center
Fri 09:25:29 AM 35.9328 -86.8833 87° East 309 356 5,000 -750 Descending Memphis Center
Fri 09:26:29 AM 35.9342 -86.7936 89° East 276 318 4,700 -700 Descending Memphis Center
Fri 09:27:29 AM 35.9722 -86.7381 50° Northeast 211 243 3,600 -1,100 Descending Memphis Center
Fri 09:28:29 AM 36.0239 -86.7178 18° North 186 214 2,500 -1,100 Descending Memphis Center
Fri 09:29:29 AM 36.0608 -86.7033 18° North 151 174 1,400 -850 Descending Memphis Center
Fri 09:30:29 AM 36.0961 -86.6914 15° North 145 167 800 11,300 Descending Memphis Center
Fri 09:31:29 AM 36.1414 -86.6739 17° North 145 167 24,000 11,600 Climbing Memphis Center
Fri 09:32:29 AM 36.1825 -86.6594 16° North 145 167 24,000  Level Memphis Center
Fri 09:33:29 AM 36.2239 -86.6444 16° North 145 167 24,000  Level Memphis Center
Fri 09:35:00 AM 36.1167 -86.6667 195° South  Level FlightAware Approximate
Fri 09:42:00 AM 36.1245 -86.6782 195° South  Level Estimated
Fri 09:43:00 AM 36.1245 -86.6782 195° South  Level Estimated
Fri 09:44:00 AM 36.1245 -86.6782 195° South  Level Estimated
Fri 09:45:00 AM 36.1245 -86.6782 195° South  Level Estimated
Fri 09:46:00 AM 36.1245 -86.6782 195° South  Level Estimated
Fri 09:47:00 AM 36.1245 -86.6782 195° South  Level Estimated
Fri 09:48:00 AM 36.1245 -86.6782 195° South  Level Estimated
Fri 09:49:00 AM 36.1245 -86.6782 195° South  Level Estimated

Login

Don't have an account? Register now (free) for customized features, flight alerts, and more!